Time;durP1;ratioP1;P1;durP2;ratioP2;P2;SDS_P1;SDS_P2;PMS_P1;PMS_P2;Temp;Humidity;BMP_temperature;BMP_pressure;BME280_temperature;BME280_humidity;BME280_pressure;Samples;Min_cycle;Max_cycle;Signal;HPM_P1;HPM_P2
2022/05/26 00:01:39;;;;;;;;;0.00;0.00;;;;;33.31;23.02;101726.63;4915849;28;45279;-87
2022/05/26 00:04:04;;;;;;;;;3.00;0.00;;;;;33.13;23.06;101704.72;4916096;28;45571;-87
2022/05/26 00:06:30;;;;;;;;;2.00;0.67;;;;;32.99;23.23;101686.34;4916098;28;47177;-86
2022/05/26 00:08:57;;;;;;;;;1.00;1.00;;;;;32.96;23.82;101700.28;4915433;28;45534;-85
2022/05/26 00:11:28;;;;;;;;;1.67;1.00;;;;;33.33;23.41;101711.81;4915646;28;45370;-86
2022/05/26 00:13:55;;;;;;;;;1.00;1.00;;;;;33.65;23.01;101741.88;4915432;28;45409;-86
2022/05/26 00:16:21;;;;;;;;;1.00;0.00;;;;;33.43;23.06;101701.13;4915482;28;46252;-86
2022/05/26 00:18:46;;;;;;;;;0.00;0.00;;;;;33.12;23.31;101680.09;4915489;28;45583;-86
2022/05/26 00:21:13;;;;;;;;;0.00;0.00;;;;;33.30;23.79;101689.09;4915894;28;45437;-86
2022/05/26 00:23:38;;;;;;;;;1.33;0.33;;;;;33.24;23.32;101700.50;4914961;28;45445;-85
2022/05/26 00:26:04;;;;;;;;;1.00;1.00;;;;;33.37;23.33;101697.84;4916617;28;45422;-85
2022/05/26 00:28:31;;;;;;;;;2.00;1.00;;;;;33.18;23.16;101702.59;4916566;28;45398;-85
2022/05/26 00:30:57;;;;;;;;;3.33;0.00;;;;;33.27;23.52;101703.03;4915485;28;45416;-85
2022/05/26 00:33:22;;;;;;;;;0.67;0.00;;;;;33.08;23.47;101662.00;4916795;28;45523;-85
2022/05/26 00:35:48;;;;;;;;;0.00;0.00;;;;;32.92;23.34;101662.94;4916241;28;45447;-85
2022/05/26 00:38:14;;;;;;;;;0.33;0.00;;;;;33.35;23.71;101744.72;4916279;28;45354;-85
2022/05/26 00:40:42;;;;;;;;;2.00;0.00;;;;;33.15;23.73;101713.78;4915238;28;45397;-85
2022/05/26 00:43:08;;;;;;;;;0.00;0.00;;;;;33.34;23.47;101751.19;4915420;28;45373;-86
2022/05/26 00:45:37;;;;;;;;;0.33;0.33;;;;;33.32;23.23;101731.16;4914873;28;48253;-86
2022/05/26 00:48:09;;;;;;;;;0.33;0.33;;;;;33.03;23.75;101720.03;4916473;28;45336;-86
2022/05/26 00:50:43;;;;;;;;;0.00;0.00;;;;;32.95;23.84;101705.88;4915224;28;45405;-85
2022/05/26 00:53:37;;;;;;;;;0.33;0.00;;;;;32.96;23.44;101697.53;4915472;28;45839;-86
2022/05/26 00:56:18;;;;;;;;;0.67;0.67;;;;;32.90;23.61;101717.16;4920341;28;46546;-86
2022/05/26 00:58:49;;;;;;;;;1.33;0.33;;;;;32.95;24.16;101717.78;4914738;28;45740;-86
2022/05/26 01:01:15;;;;;;;;;0.67;0.67;;;;;33.15;23.22;101718.38;4916574;28;45431;-86
2022/05/26 01:03:50;;;;;;;;;1.33;0.33;;;;;33.11;23.12;101701.22;4914910;28;45635;-86
2022/05/26 01:06:46;;;;;;;;;0.33;0.33;;;;;33.34;23.36;101759.44;4914820;28;47422;-86
2022/05/26 01:09:11;;;;;;;;;0.67;0.67;;;;;33.01;23.63;101711.00;4919793;28;46066;-86
2022/05/26 01:11:40;;;;;;;;;1.00;0.00;;;;;33.22;23.60;101763.81;4916293;28;45304;-86
2022/05/26 01:14:18;;;;;;;;;0.00;0.00;;;;;32.72;23.55;101710.00;4914991;28;45344;-86
2022/05/26 01:17:05;;;;;;;;;0.00;0.00;;;;;33.14;23.23;101763.38;4914457;28;47267;-87
2022/05/26 01:20:02;;;;;;;;;0.33;0.33;;;;;33.04;23.70;101768.53;4914870;28;45529;-85
2022/05/26 01:22:49;;;;;;;;;0.67;0.67;;;;;32.65;23.52;101698.47;4915068;28;45494;-85
2022/05/26 01:25:46;;;;;;;;;0.00;0.00;;;;;33.02;23.46;101764.13;4916080;28;45491;-86
2022/05/26 01:28:33;;;;;;;;;0.33;0.33;;;;;33.15;23.67;101768.78;4915826;28;46630;-86
2022/05/26 01:30:58;;;;;;;;;1.33;0.00;;;;;33.33;23.20;101776.91;4914576;28;45423;-86
2022/05/26 01:33:34;;;;;;;;;0.00;0.00;;;;;33.40;23.16;101774.69;4914822;28;45349;-86
2022/05/26 01:36:23;;;;;;;;;3.00;0.67;;;;;33.20;23.43;101735.50;4914230;28;45542;-86
2022/05/26 01:39:07;;;;;;;;;0.67;0.00;;;;;33.16;23.78;101773.31;4914021;28;47098;-86
2022/05/26 01:41:42;;;;;;;;;1.00;1.00;;;;;32.77;24.04;101791.19;4914494;28;45291;-84
2022/05/26 01:44:16;;;;;;;;;0.67;0.00;;;;;32.63;24.11;101761.75;4914867;28;45532;-86
2022/05/26 01:46:43;;;;;;;;;0.67;0.67;;;;;33.04;23.89;101770.38;4915799;28;45472;-86
2022/05/26 01:49:24;;;;;;;;;0.00;0.00;;;;;33.16;23.68;101783.41;4915534;28;46403;-86
2022/05/26 01:52:06;;;;;;;;;0.33;0.33;;;;;32.77;23.41;101733.50;4914302;28;45526;-86
2022/05/26 01:54:58;;;;;;;;;1.00;1.00;;;;;32.94;23.60;101742.56;4914608;28;45362;-86
2022/05/26 01:57:43;;;;;;;;;0.33;0.33;;;;;32.85;23.94;101733.03;4914581;28;45501;-86
2022/05/26 02:00:12;;;;;;;;;0.33;0.33;;;;;33.03;23.79;101747.53;4915606;28;46301;-86
2022/05/26 02:02:55;;;;;;;;;0.00;0.00;;;;;33.13;23.78;101747.84;4915737;28;45292;-86
2022/05/26 02:05:25;;;;;;;;;0.33;0.00;;;;;33.16;23.71;101758.66;4913518;28;45374;-85
2022/05/26 02:08:22;;;;;;;;;2.00;0.00;;;;;33.32;23.33;101780.66;4915596;28;45313;-87
2022/05/26 02:10:57;;;;;;;;;0.00;0.00;;;;;33.15;23.39;101746.78;4913930;28;47366;-86
2022/05/26 02:13:33;;;;;;;;;0.00;0.00;;;;;32.83;23.69;101686.41;4915580;28;45374;-86
2022/05/26 02:16:25;;;;;;;;;0.00;0.00;;;;;32.86;23.56;101725.69;4914353;28;45372;-86
2022/05/26 02:19:07;;;;;;;;;0.00;0.00;;;;;33.08;23.92;101778.38;4913672;28;45400;-86
2022/05/26 02:21:54;;;;;;;;;0.00;0.00;;;;;32.89;23.51;101734.59;4915315;28;45356;-86
2022/05/26 02:24:26;;;;;;;;;0.67;0.00;;;;;32.72;24.10;101693.53;4914315;28;45267;-86
2022/05/26 02:26:51;;;;;;;;;0.00;0.00;;;;;33.09;23.50;101758.13;4913821;28;45341;-86
2022/05/26 02:32:04;;;;;;;;;2.00;0.33;;;;;32.93;23.99;101749.94;4915145;28;45424;-86
2022/05/26 02:34:31;;;;;;;;;1.00;1.00;;;;;33.04;24.13;101776.78;4914790;28;45411;-86
2022/05/26 02:36:59;;;;;;;;;1.00;0.67;;;;;32.52;24.12;101716.63;4915024;28;45410;-86
2022/05/26 02:39:24;;;;;;;;;1.00;0.00;;;;;32.70;23.95;101750.41;4913898;28;45377;-85
2022/05/26 02:41:54;;;;;;;;;0.00;0.00;;;;;32.83;24.10;101745.97;4914708;28;46445;-85
2022/05/26 02:44:21;;;;;;;;;0.00;0.00;;;;;32.98;23.74;101757.91;4915413;28;45348;-86
2022/05/26 02:47:02;;;;;;;;;2.00;1.00;;;;;32.89;24.18;101733.72;4913331;28;45333;-86
2022/05/26 02:49:54;;;;;;;;;0.67;0.67;;;;;32.75;23.79;101710.69;4914892;28;45352;-86
2022/05/26 02:52:31;;;;;;;;;0.00;0.00;;;;;33.06;23.90;101769.31;4913773;28;47402;-84
2022/05/26 02:55:19;;;;;;;;;1.67;0.00;;;;;32.86;24.16;101765.03;4914792;28;45242;-86
2022/05/26 02:58:06;;;;;;;;;3.00;0.33;;;;;32.49;23.98;101702.13;4914874;28;45418;-86
2022/05/26 03:00:49;;;;;;;;;0.67;0.67;;;;;32.31;24.19;101682.09;4913826;28;45763;-86
2022/05/26 03:03:43;;;;;;;;;0.00;0.00;;;;;33.00;23.76;101775.22;4914560;28;46244;-85
2022/05/26 03:06:22;;;;;;;;;1.33;0.33;;;;;32.43;24.23;101715.31;4918375;28;45817;-86
2022/05/26 03:08:48;;;;;;;;;1.00;1.00;;;;;32.88;25.20;101773.19;4913309;28;45406;-86
2022/05/26 03:11:18;;;;;;;;;1.00;0.00;;;;;33.30;24.78;101782.59;4913423;28;45433;-85
2022/05/26 03:13:44;;;;;;;;;3.00;1.00;;;;;33.04;25.64;101764.88;4913051;28;48698;-85
2022/05/26 03:16:09;;;;;;;;;1.00;1.00;;;;;32.97;25.68;101770.78;4912814;28;45391;-85
2022/05/26 03:18:35;;;;;;;;;1.00;1.00;;;;;32.58;26.10;101754.75;4914344;28;45561;-85
2022/05/26 03:21:03;;;;;;;;;2.33;1.00;;;;;32.31;26.17;101736.16;4917353;28;45451;-85
2022/05/26 03:23:30;;;;;;;;;2.00;1.00;;;;;32.46;26.31;101792.03;4917218;28;46681;-84
2022/05/26 03:25:57;;;;;;;;;2.33;1.67;;;;;32.62;26.53;101779.19;4917029;28;45261;-85
2022/05/26 03:28:24;;;;;;;;;0.00;0.00;;;;;32.73;26.88;101780.47;4917615;28;45309;-87
2022/05/26 03:30:50;;;;;;;;;2.00;2.00;;;;;32.44;26.57;101728.97;4916124;28;45454;-86
2022/05/26 03:33:15;;;;;;;;;2.33;1.00;;;;;32.93;26.43;101802.16;4917489;28;46371;-84
2022/05/26 03:41:09;;;;;;;;;1.00;1.00;;;;;32.68;26.13;101758.72;4917603;28;45483;-87
2022/05/26 03:43:45;;;;;;;;;0.33;0.33;;;;;32.42;25.90;101730.91;4916255;28;47517;-86
2022/05/26 03:46:11;;;;;;;;;1.67;1.67;;;;;32.66;26.61;101761.56;4915781;28;45511;-86
2022/05/26 03:48:38;;;;;;;;;0.67;0.67;;;;;32.51;26.76;101747.84;4916400;28;45390;-86
2022/05/26 03:51:04;;;;;;;;;1.67;1.67;;;;;32.53;26.70;101765.09;4915754;28;45410;-86
2022/05/26 03:53:29;;;;;;;;;1.67;1.67;;;;;32.66;26.65;101821.13;4917163;28;45297;-86
2022/05/26 03:55:55;;;;;;;;;2.00;0.67;;;;;32.39;27.42;101797.03;4915781;28;45393;-86
2022/05/26 03:58:20;;;;;;;;;1.00;0.00;;;;;32.19;27.29;101770.66;4917501;28;45788;-86
2022/05/26 04:00:46;;;;;;;;;1.67;1.00;;;;;32.00;27.58;101773.53;4916909;28;45317;-86
2022/05/26 04:03:11;;;;;;;;;1.00;1.00;;;;;31.87;27.60;101745.88;4917004;28;46599;-86
2022/05/26 04:05:37;;;;;;;;;0.00;0.00;;;;;32.14;27.27;101787.41;4916035;28;45772;-86
2022/05/26 04:08:02;;;;;;;;;0.00;0.00;;;;;32.04;26.94;101808.09;4915817;28;45626;-88
2022/05/26 04:10:28;;;;;;;;;0.00;0.00;;;;;32.18;27.26;101820.16;4916616;28;45330;-86
2022/05/26 04:12:55;;;;;;;;;0.00;0.00;;;;;31.94;26.67;101809.53;4915592;28;47370;-86
2022/05/26 04:15:22;;;;;;;;;2.00;0.00;;;;;32.27;27.19;101827.91;4915775;28;45425;-86
2022/05/26 04:17:47;;;;;;;;;0.67;0.67;;;;;31.76;26.80;101760.19;4915797;28;45444;-86
2022/05/26 04:20:17;;;;;;;;;2.00;0.00;;;;;32.19;26.24;101811.84;4916147;28;45528;-87
2022/05/26 04:22:43;;;;;;;;;1.00;1.00;;;;;31.89;26.43;101741.19;4916061;28;47401;-87
2022/05/26 04:25:09;;;;;;;;;1.00;1.00;;;;;32.47;26.17;101835.03;4916107;28;45400;-87
2022/05/26 04:27:34;;;;;;;;;0.00;0.00;;;;;32.19;26.38;101794.50;4917304;28;45561;-87
2022/05/26 04:30:03;;;;;;;;;1.00;0.00;;;;;32.24;26.13;101804.25;4916615;28;45464;-88
2022/05/26 04:32:29;;;;;;;;;0.00;0.00;;;;;32.09;26.08;101785.84;4916137;28;47141;-87
2022/05/26 04:34:54;;;;;;;;;1.33;1.33;;;;;32.34;26.37;101825.72;4915884;28;46075;-87
2022/05/26 04:37:22;;;;;;;;;0.00;0.00;;;;;32.21;26.22;101809.00;4916030;28;45519;-86
2022/05/26 04:39:47;;;;;;;;;0.00;0.00;;;;;32.08;26.63;101789.56;4915643;28;45263;-85
2022/05/26 04:42:13;;;;;;;;;1.00;1.00;;;;;32.46;26.81;101850.63;4915665;28;47024;-87
2022/05/26 04:44:43;;;;;;;;;2.00;1.00;;;;;32.46;26.53;101839.63;4915355;28;45608;-87
2022/05/26 04:47:09;;;;;;;;;0.00;0.00;;;;;32.06;26.62;101811.63;4916851;28;45371;-88
2022/05/26 04:49:37;;;;;;;;;0.00;0.00;;;;;32.01;26.78;101805.50;4916501;28;45702;-86
2022/05/26 04:52:08;;;;;;;;;0.00;0.00;;;;;32.05;26.71;101818.06;4917144;28;45412;-88
2022/05/26 04:54:36;;;;;;;;;1.00;1.00;;;;;32.31;26.60;101866.09;4915383;28;45487;-86
2022/05/26 04:57:02;;;;;;;;;0.00;0.00;;;;;32.18;26.64;101836.66;4916232;28;45329;-85
2022/05/26 04:59:29;;;;;;;;;1.00;1.00;;;;;31.77;26.76;101772.03;4916495;28;45457;-87
2022/05/26 05:01:54;;;;;;;;;0.00;0.00;;;;;32.18;26.69;101818.34;4916176;28;47136;-86
2022/05/26 05:04:24;;;;;;;;;2.00;1.00;;;;;32.45;26.19;101848.84;4916782;28;45399;-86
2022/05/26 05:06:50;;;;;;;;;0.33;0.00;;;;;32.32;26.43;101842.25;4915915;28;45496;-87
2022/05/26 05:09:16;;;;;;;;;0.00;0.00;;;;;32.13;26.16;101823.16;4915546;28;45320;-87
2022/05/26 05:11:41;;;;;;;;;1.00;0.00;;;;;31.68;25.90;101759.72;4916443;28;48326;-88
2022/05/26 05:14:07;;;;;;;;;3.00;1.67;;;;;31.90;26.16;101810.66;4915501;28;45850;-87
2022/05/26 05:16:42;;;;;;;;;0.00;0.00;;;;;31.99;26.05;101800.06;4917910;28;45479;-84
2022/05/26 05:19:11;;;;;;;;;1.00;1.00;;;;;32.11;25.87;101801.28;4935376;28;45308;-85
2022/05/26 05:21:52;;;;;;;;;1.00;0.00;;;;;32.35;25.48;101831.13;4935414;28;47170;-86
2022/05/26 05:24:26;;;;;;;;;0.67;0.33;;;;;32.38;26.00;101830.94;4935966;28;45717;-84
2022/05/26 05:26:56;;;;;;;;;0.67;0.67;;;;;32.17;25.62;101813.81;4936175;28;45514;-87
2022/05/26 05:29:28;;;;;;;;;1.00;1.00;;;;;32.01;25.87;101764.34;4936808;28;45391;-87
2022/05/26 05:31:59;;;;;;;;;2.33;1.33;;;;;32.67;25.52;101883.31;4936791;28;47092;-88
2022/05/26 05:34:33;;;;;;;;;1.00;1.00;;;;;32.53;25.49;101847.53;4935810;28;45420;-88
2022/05/26 05:37:00;;;;;;;;;2.67;2.00;;;;;32.37;25.79;101809.06;4935008;28;45247;-87
2022/05/26 05:39:26;;;;;;;;;1.67;1.00;;;;;32.77;25.70;101870.91;4951995;28;45321;-87
2022/05/26 05:41:54;;;;;;;;;1.33;1.33;;;;;32.32;25.96;101801.06;4932934;28;47917;-87
2022/05/26 05:44:20;;;;;;;;;1.00;0.33;;;;;32.86;25.13;101901.56;4934299;28;45457;-87
2022/05/26 05:46:57;;;;;;;;;0.67;0.00;;;;;32.45;25.46;101846.09;4934645;28;45526;-88
2022/05/26 05:49:27;;;;;;;;;6.00;5.00;;;;;32.49;25.24;101853.19;4935047;28;45328;-86
2022/05/26 05:51:54;;;;;;;;;0.67;0.67;;;;;32.80;25.16;101894.56;4933805;28;47153;-85
2022/05/26 05:54:21;;;;;;;;;0.33;0.33;;;;;32.48;25.86;101826.69;4949772;28;45805;-86
2022/05/26 05:56:47;;;;;;;;;3.00;1.00;;;;;32.57;25.06;101843.63;4949706;28;45490;-87
2022/05/26 05:59:14;;;;;;;;;1.00;1.00;;;;;32.83;24.99;101886.16;4935558;28;45445;-87
2022/05/26 06:01:40;;;;;;;;;0.33;0.33;;;;;32.57;25.71;101868.34;4935400;28;46409;-87
2022/05/26 06:04:06;;;;;;;;;0.67;0.67;;;;;32.32;25.68;101839.50;4933503;28;45776;-87
2022/05/26 06:06:37;;;;;;;;;0.67;0.67;;;;;32.95;25.12;101907.44;4934093;28;45498;-88
2022/05/26 06:09:03;;;;;;;;;1.00;1.00;;;;;32.66;25.29;101852.22;4933645;28;45559;-87
2022/05/26 06:11:29;;;;;;;;;0.67;0.67;;;;;32.61;25.44;101842.47;4933484;28;48193;-86
2022/05/26 06:13:54;;;;;;;;;0.33;0.33;;;;;32.71;25.23;101856.63;4933314;28;45361;-87
2022/05/26 06:16:20;;;;;;;;;0.67;0.33;;;;;32.55;25.10;101838.22;4933272;28;45344;-88
2022/05/26 06:18:46;;;;;;;;;1.00;1.00;;;;;32.61;24.83;101861.72;4914539;28;45639;-87
2022/05/26 06:21:11;;;;;;;;;0.00;0.00;;;;;32.02;24.88;101774.31;4915701;28;45268;-87
2022/05/26 06:23:36;;;;;;;;;1.00;1.00;;;;;32.56;25.45;101877.56;4915398;28;45291;-83
2022/05/26 06:26:02;;;;;;;;;1.00;1.00;;;;;32.88;24.87;101895.00;4913223;28;45967;-83
2022/05/26 06:31:11;;;;;;;;;0.33;0.33;;;;;32.87;24.82;101917.97;4914942;28;45750;-83
2022/05/26 06:39:06;;;;;;;;;0.00;0.00;;;;;32.56;24.89;101839.09;4914841;28;45345;-86
2022/05/26 06:44:16;;;;;;;;;0.33;0.00;;;;;33.07;24.73;101962.69;4933780;28;45516;-83
2022/05/26 06:46:41;;;;;;;;;0.67;0.67;;;;;32.71;24.44;101890.47;4920153;28;45271;-85
2022/05/26 06:49:06;;;;;;;;;2.00;0.00;;;;;32.96;24.18;101905.56;4928005;28;45654;-85
2022/05/26 06:51:36;;;;;;;;;1.00;0.00;;;;;33.25;24.41;101956.16;4922884;28;46340;-85
2022/05/26 06:54:03;;;;;;;;;0.33;0.33;;;;;32.91;24.14;101881.09;4920451;28;45468;-84
2022/05/26 06:56:29;;;;;;;;;0.00;0.00;;;;;33.10;24.08;101894.63;4917822;28;45467;-83
2022/05/26 06:58:55;;;;;;;;;0.00;0.00;;;;;33.12;24.23;101914.72;4931354;28;45658;-83
2022/05/26 07:01:20;;;;;;;;;0.00;0.00;;;;;33.30;24.07;101959.50;4935353;28;47354;-82
2022/05/26 07:03:45;;;;;;;;;0.00;0.00;;;;;33.06;24.73;101916.91;4935575;28;45949;-85
2022/05/26 07:06:16;;;;;;;;;0.00;0.00;;;;;33.05;24.45;101970.13;4925885;28;45373;-84
2022/05/26 07:08:46;;;;;;;;;1.00;1.00;;;;;32.71;25.40;101928.94;4948294;28;45479;-84
2022/05/26 07:11:12;;;;;;;;;0.00;0.00;;;;;32.72;24.91;101966.44;4945085;28;48136;-85
2022/05/26 07:13:38;;;;;;;;;1.00;1.00;;;;;32.86;24.94;101962.03;4931766;28;45391;-83
2022/05/26 07:16:05;;;;;;;;;0.00;0.00;;;;;32.90;24.97;101930.63;4936656;28;45240;-83
2022/05/26 07:18:30;;;;;;;;;0.50;0.00;;;;;32.63;24.86;101903.72;4917878;28;45328;-85
2022/05/26 07:20:56;;;;;;;;;0.00;0.00;;;;;32.95;24.85;101948.66;4915381;28;47930;-83
2022/05/26 07:23:21;;;;;;;;;0.33;0.33;;;;;33.20;24.74;101991.25;4935218;28;45450;-83
2022/05/26 07:25:47;;;;;;;;;0.00;0.00;;;;;33.03;24.90;101956.47;4937085;28;45501;-83
2022/05/26 07:28:12;;;;;;;;;0.00;0.00;;;;;33.21;25.45;101960.03;4910933;28;45559;-83
2022/05/26 07:30:38;;;;;;;;;0.00;0.00;;;;;33.21;24.64;101945.38;4928068;28;46355;-81
2022/05/26 07:33:04;;;;;;;;;0.00;0.00;;;;;33.32;24.64;101942.94;4921617;28;45540;-81
2022/05/26 07:35:30;;;;;;;;;0.33;0.00;;;;;33.55;24.94;101977.34;4902093;28;45444;-86
2022/05/26 07:43:28;;;;;;;;;0.00;0.00;;;;;33.54;24.43;102004.94;4918731;28;45431;-80
2022/05/26 07:45:53;;;;;;;;;1.00;0.00;;;;;33.34;24.38;101944.59;4921427;28;45415;-81
2022/05/26 07:48:20;;;;;;;;;0.00;0.00;;;;;33.45;23.90;101965.09;4934878;28;45514;-82
2022/05/26 07:50:45;;;;;;;;;1.00;0.00;;;;;33.80;24.01;102023.59;4924127;28;48402;-81
2022/05/26 07:53:11;;;;;;;;;0.00;0.00;;;;;33.60;24.68;102007.31;4915992;28;45552;-81
2022/05/26 07:55:38;;;;;;;;;1.67;0.00;;;;;33.49;24.98;101996.97;4948017;28;45455;-83
2022/05/26 07:58:04;;;;;;;;;0.00;0.00;;;;;33.27;25.15;102006.44;4947612;28;45521;-81
2022/05/26 08:00:29;;;;;;;;;0.00;0.00;;;;;33.24;25.59;102000.25;4915532;28;47094;-84
2022/05/26 08:02:55;;;;;;;;;0.00;0.00;;;;;33.31;25.14;101990.66;4946785;28;45491;-82
2022/05/26 08:05:20;;;;;;;;;0.00;0.00;;;;;33.54;25.08;101996.69;4916218;28;45486;-81
2022/05/26 08:07:45;;;;;;;;;0.00;0.00;;;;;33.45;24.39;101988.00;4922058;28;45556;-80
2022/05/26 08:10:12;;;;;;;;;0.00;0.00;;;;;33.79;24.44;102038.31;4934562;28;48109;-81
2022/05/26 08:12:37;;;;;;;;;0.00;0.00;;;;;33.59;24.39;102002.81;4921066;28;45682;-80
2022/05/26 08:15:03;;;;;;;;;0.67;0.00;;;;;33.67;24.99;101989.47;4915712;28;45350;-81
2022/05/26 08:17:28;;;;;;;;;0.00;0.00;;;;;33.90;24.04;102015.66;4916705;28;45447;-79
2022/05/26 08:19:54;;;;;;;;;0.00;0.00;;;;;33.93;24.35;102011.84;4915433;28;48059;-80
2022/05/26 08:22:20;;;;;;;;;0.00;0.00;;;;;33.85;24.11;102015.94;4915152;28;45358;-79
2022/05/26 08:24:53;;;;;;;;;0.00;0.00;;;;;33.78;24.62;102022.78;4904459;28;45607;-81
2022/05/26 08:27:18;;;;;;;;;0.00;0.00;;;;;33.56;24.98;102014.88;4928106;28;45479;-82
2022/05/26 08:29:44;;;;;;;;;0.00;0.00;;;;;33.76;24.67;102059.66;4928247;28;47119;-67
2022/05/26 08:32:10;;;;;;;;;1.33;0.67;;;;;33.69;24.63;102050.81;4897499;28;45676;-79
2022/05/26 08:34:35;;;;;;;;;1.00;1.00;;;;;33.46;25.06;102058.56;4897896;28;45447;-86
2022/05/26 08:37:03;;;;;;;;;2.00;2.00;;;;;33.27;25.05;102028.44;4898393;28;45477;-79
2022/05/26 08:39:30;;;;;;;;;2.00;2.00;;;;;33.07;25.16;102017.69;4923337;28;45668;-81
2022/05/26 08:41:56;;;;;;;;;2.00;2.00;;;;;33.41;25.42;102076.31;4926441;28;45442;-81
2022/05/26 08:44:38;;;;;;;;;0.67;0.67;;;;;33.07;25.46;102040.56;4923128;28;45789;-79
2022/05/26 08:47:11;;;;;;;;;3.00;3.00;;;;;33.21;25.44;102075.53;5004138;28;45344;-79
2022/05/26 08:49:51;;;;;;;;;3.67;3.00;;;;;32.98;24.94;102041.97;4907736;28;45556;-82
2022/05/26 08:52:38;;;;;;;;;2.00;2.00;;;;;33.27;25.36;102068.81;4914465;28;45719;-80
2022/05/26 08:55:21;;;;;;;;;1.67;1.33;;;;;33.31;24.98;102041.06;4916091;28;45191;-82
2022/05/26 08:57:53;;;;;;;;;5.00;3.00;;;;;33.38;24.55;102088.34;4908134;28;45420;-77
2022/05/26 09:00:28;;;;;;;;;1.67;1.67;;;;;32.99;24.58;102090.44;4917588;28;45531;-80
2022/05/26 09:03:18;;;;;;;;;3.33;3.00;;;;;32.62;24.40;102033.84;4934131;28;45467;-80
2022/05/26 09:05:45;;;;;;;;;3.00;3.00;;;;;32.90;24.85;102048.81;4934302;28;45372;-80
2022/05/26 09:13:54;;;;;;;;;3.33;3.33;;;;;33.03;24.20;102032.56;4935409;28;45317;-80
2022/05/26 09:16:21;;;;;;;;;3.67;3.67;;;;;33.34;24.21;102073.00;4933079;28;45423;-80
2022/05/26 09:19:06;;;;;;;;;3.00;3.00;;;;;33.73;23.71;102099.22;4914836;28;45318;-80
2022/05/26 09:21:31;;;;;;;;;3.33;2.67;;;;;33.44;23.94;102049.47;4915687;28;46286;-80
2022/05/26 09:24:24;;;;;;;;;2.00;2.00;;;;;33.87;23.32;102086.53;4916065;28;45234;-80
2022/05/26 09:26:58;;;;;;;;;3.00;2.00;;;;;33.96;23.47;102063.97;4916087;28;45514;-80
2022/05/26 09:29:31;;;;;;;;;3.67;3.00;;;;;33.87;23.25;102025.97;4978520;28;45566;-80
2022/05/26 09:31:58;;;;;;;;;2.67;2.67;;;;;34.21;23.09;102092.81;4978431;28;46319;-80
2022/05/26 09:34:27;;;;;;;;;2.00;2.00;;;;;34.13;23.12;102076.72;4995712;28;45545;-79
2022/05/26 09:36:59;;;;;;;;;2.00;1.33;;;;;34.24;22.66;102087.09;4996538;28;45500;-80
2022/05/26 09:39:36;;;;;;;;;2.00;2.00;;;;;34.07;23.23;102071.59;4995865;28;45556;-80
2022/05/26 09:42:06;;;;;;;;;2.67;2.67;;;;;34.48;23.08;102120.56;4978347;28;47533;-80
2022/05/26 09:44:31;;;;;;;;;2.33;2.33;;;;;34.49;22.76;102114.97;4996008;28;45528;-80
2022/05/26 09:47:01;;;;;;;;;2.00;2.00;;;;;34.30;22.65;102078.47;4996175;28;45417;-80
2022/05/26 09:49:32;;;;;;;;;2.00;2.00;;;;;34.15;22.34;102060.97;4995848;28;45266;-80
2022/05/26 09:52:17;;;;;;;;;4.00;3.00;;;;;34.41;22.46;102098.00;4995777;28;45425;-80
2022/05/26 09:54:43;;;;;;;;;1.33;1.33;;;;;34.41;22.74;102053.91;4978013;28;45468;-80
2022/05/26 09:57:24;;;;;;;;;2.67;2.67;;;;;34.30;22.15;102060.06;4996216;28;45489;-80
2022/05/26 09:59:49;;;;;;;;;4.00;2.33;;;;;34.27;22.01;102045.59;4996359;28;45398;-80
2022/05/26 10:02:34;;;;;;;;;3.00;2.00;;;;;34.83;22.16;102115.66;4977684;28;47405;-80
2022/05/26 10:05:02;;;;;;;;;3.00;2.00;;;;;34.93;22.18;102107.69;4978146;28;45298;-80
2022/05/26 10:07:48;;;;;;;;;1.67;1.67;;;;;34.89;22.47;102108.00;4995792;28;45630;-80
2022/05/26 10:10:42;;;;;;;;;1.67;1.33;;;;;34.93;22.28;102117.84;4991319;28;45434;-77
2022/05/26 10:13:37;;;;;;;;;1.33;1.33;;;;;35.00;22.30;102122.88;4970207;28;45645;-80
2022/05/26 10:16:25;;;;;;;;;1.33;1.33;;;;;35.06;22.06;102117.94;4897698;28;45606;-80
2022/05/26 10:19:08;;;;;;;;;2.00;2.00;;;;;34.99;22.04;102128.47;4896391;29;45563;-83
2022/05/26 10:21:50;;;;;;;;;2.33;2.00;;;;;35.04;21.74;102126.31;4919990;28;45667;-80
2022/05/26 10:24:52;;;;;;;;;1.00;1.00;;;;;35.06;21.62;102123.47;4906062;28;46319;-82
2022/05/26 10:27:20;;;;;;;;;1.67;1.00;;;;;34.90;21.78;102127.19;4901283;28;45562;-81
2022/05/26 10:29:52;;;;;;;;;1.00;1.00;;;;;34.75;22.04;102114.34;4932180;28;45511;-80
2022/05/26 10:32:41;;;;;;;;;1.00;1.00;;;;;34.68;21.96;102119.34;4934149;28;45484;-81
2022/05/26 10:35:23;;;;;;;;;1.67;0.67;;;;;34.76;22.21;102103.22;4934942;28;45493;-82
2022/05/26 10:38:21;;;;;;;;;1.33;1.33;;;;;34.99;21.87;102112.84;4934578;28;45490;-85
2022/05/26 10:40:55;;;;;;;;;1.00;1.00;;;;;34.92;21.55;102074.69;4918731;28;45494;-85
2022/05/26 10:43:26;;;;;;;;;1.00;1.00;;;;;35.19;21.51;102092.25;4934473;28;45442;-80
2022/05/26 10:45:55;;;;;;;;;1.33;1.00;;;;;35.13;21.44;102076.06;4934497;28;46076;-86
2022/05/26 10:48:33;;;;;;;;;2.67;1.33;;;;;35.57;21.46;102111.94;4935376;28;45506;-84
2022/05/26 10:51:07;;;;;;;;;3.00;2.00;;;;;35.36;21.20;102093.06;4934883;28;45542;-82
2022/05/26 10:53:41;;;;;;;;;1.67;1.67;;;;;35.35;21.56;102085.75;4903742;28;45496;-80
2022/05/26 10:56:25;;;;;;;;;2.00;2.00;;;;;35.70;21.25;102112.91;4895598;28;45779;-82
2022/05/26 10:59:00;;;;;;;;;2.00;2.00;;;;;35.61;21.05;102091.44;4896594;28;45620;-85
2022/05/26 11:01:36;;;;;;;;;1.00;1.00;;;;;35.21;21.06;102048.00;4895206;28;45425;-80
2022/05/26 11:04:18;;;;;;;;;4.33;3.00;;;;;35.41;20.87;102078.97;4895547;28;45457;-81
2022/05/26 11:06:46;;;;;;;;;4.00;3.33;;;;;35.59;21.30;102109.97;4959939;28;46205;-80
2022/05/26 11:09:25;;;;;;;;;1.00;1.00;;;;;35.51;20.69;102116.91;4901423;28;45515;-81
2022/05/26 11:11:57;;;;;;;;;2.00;2.00;;;;;35.62;20.35;102104.25;4905643;28;45422;-81
2022/05/26 11:17:59;;;;;;;;;0.00;0.00;;;;;35.22;20.59;102097.56;4904604;28;45418;-81
2022/05/26 11:20:33;;;;;;;;;1.67;1.67;;;;;35.11;20.94;102075.31;4895568;28;45431;-82
2022/05/26 11:23:03;;;;;;;;;2.33;2.00;;;;;35.13;20.98;102072.44;4960292;28;45472;-81
2022/05/26 11:25:32;;;;;;;;;2.00;2.00;;;;;35.21;20.65;102061.81;4895238;28;45385;-82
2022/05/26 11:28:12;;;;;;;;;2.00;1.00;;;;;35.44;20.77;102096.19;4902601;28;45340;-83
2022/05/26 11:36:58;;;;;;;;;3.00;1.00;;;;;35.53;21.01;102056.94;4918563;28;45376;-80
2022/05/26 11:39:37;;;;;;;;;1.00;1.00;;;;;35.91;20.35;102093.16;4914082;28;47154;-80
2022/05/26 11:42:04;;;;;;;;;1.00;1.00;;;;;35.92;20.39;102079.22;4917090;28;45486;-80
2022/05/26 11:44:56;;;;;;;;;2.00;2.00;;;;;35.73;20.50;102074.06;4927563;28;45602;-80
2022/05/26 11:47:49;;;;;;;;;1.00;1.00;;;;;35.79;20.63;102090.19;4917240;28;45359;-80
2022/05/26 11:50:35;;;;;;;;;1.00;1.00;;;;;35.95;20.70;102081.81;4917010;28;46422;-79
2022/05/26 11:53:05;;;;;;;;;0.33;0.33;;;;;35.67;20.02;102046.88;4948629;28;45395;-88
2022/05/26 11:55:33;;;;;;;;;1.33;0.33;;;;;36.13;19.90;102087.94;4928612;28;45401;-80
2022/05/26 11:58:32;;;;;;;;;3.00;1.00;;;;;36.34;19.67;102090.25;4926130;28;45464;-81
2022/05/26 12:01:15;;;;;;;;;1.00;0.00;;;;;36.01;19.55;102005.94;4924591;28;46447;-80
2022/05/26 12:03:56;;;;;;;;;0.67;0.67;;;;;36.00;19.86;102029.88;4924863;28;45525;-80
2022/05/26 12:07:04;;;;;;;;;1.00;1.00;;;;;36.15;19.67;102049.16;4929279;28;45478;-80
2022/05/26 12:09:50;;;;;;;;;0.00;0.00;;;;;36.22;20.49;102081.78;5024165;28;45569;-78
2022/05/26 12:12:16;;;;;;;;;3.00;2.00;;;;;36.11;20.14;102089.06;5020806;28;45910;-81
2022/05/26 12:15:18;;;;;;;;;1.00;1.00;;;;;35.94;20.36;102043.25;5013571;28;45522;-84
2022/05/26 12:17:52;;;;;;;;;3.00;1.00;;;;;36.15;19.45;102074.91;4997517;28;45326;-83
2022/05/26 12:20:18;;;;;;;;;1.00;1.00;;;;;36.14;19.47;102078.66;5002019;28;45503;-83
2022/05/26 12:22:49;;;;;;;;;1.00;1.00;;;;;36.28;19.90;102083.22;5000162;28;47185;-82
2022/05/26 12:25:35;;;;;;;;;1.00;1.00;;;;;36.47;19.98;102087.50;5021445;28;45469;-80
2022/05/26 12:28:20;;;;;;;;;1.00;1.00;;;;;36.46;19.67;102066.41;5010842;28;45455;-88